Time;durP1;ratioP1;P1;durP2;ratioP2;P2;SDS_P1;SDS_P2;PMS_P1;PMS_P2;Temp;Humidity;BMP_temperature;BMP_pressure;BME280_temperature;BME280_humidity;BME280_pressure;Samples;Min_cycle;Max_cycle;Signal;HPM_P1;HPM_P2
2022/01/27 00:01:00;;;;;;;22.85;12.63;;;;;;;-7.69;100.00;94047.88;2117519;27;20456;-82
2022/01/27 00:03:34;;;;;;;24.35;12.20;;;;;;;-7.76;100.00;94044.84;2097423;28;20067;-82
2022/01/27 00:04:41;;;;;;;25.63;12.80;;;;;;;-7.74;100.00;94046.09;2119906;27;20027;-83
2022/01/27 00:05:50;;;;;;;23.98;13.05;;;;;;;-7.67;100.00;94051.75;2116200;27;20019;-81
2022/01/27 00:06:51;;;;;;;24.88;13.48;;;;;;;-7.65;100.00;94051.44;2100329;28;20029;-82
2022/01/27 00:08:14;;;;;;;26.83;13.55;;;;;;;-7.67;100.00;94054.34;2115441;27;20069;-81
2022/01/27 00:09:37;;;;;;;22.05;12.02;;;;;;;-7.68;100.00;94057.97;2119837;27;20964;-81
2022/01/27 00:10:53;;;;;;;25.75;11.95;;;;;;;-7.67;100.00;94048.38;2104047;28;20361;-81
2022/01/27 00:11:54;;;;;;;23.17;12.63;;;;;;;-7.40;100.00;94048.53;2102516;27;20983;-82
2022/01/27 00:12:55;;;;;;;21.40;12.05;;;;;;;-7.45;100.00;94046.00;2114155;28;20472;-82
2022/01/27 00:14:00;;;;;;;28.15;13.82;;;;;;;-7.62;100.00;94049.06;2099239;28;20035;-82
2022/01/27 00:15:10;;;;;;;23.88;12.82;;;;;;;-7.81;100.00;94043.09;2096831;28;20036;-82
2022/01/27 00:16:39;;;;;;;22.67;11.93;;;;;;;-7.81;100.00;94045.69;2103330;27;20470;-82
2022/01/27 00:17:44;;;;;;;22.15;11.70;;;;;;;-7.67;100.00;94049.13;2111490;28;20066;-82
2022/01/27 00:18:48;;;;;;;26.40;12.13;;;;;;;-7.70;100.00;94051.50;2122873;27;20106;-82
2022/01/27 00:19:49;;;;;;;23.75;12.85;;;;;;;-7.72;100.00;94048.44;2110703;27;20468;-82
2022/01/27 00:20:50;;;;;;;20.65;12.50;;;;;;;-7.75;100.00;94047.16;2098138;28;20040;-82
2022/01/27 00:21:51;;;;;;;25.90;12.48;;;;;;;-7.62;100.00;94046.47;2098096;27;20082;-82
2022/01/27 00:22:52;;;;;;;23.67;13.63;;;;;;;-7.58;100.00;94049.28;2114560;28;20467;-82
2022/01/27 00:23:55;;;;;;;23.08;12.18;;;;;;;-7.55;100.00;94056.53;2098603;28;20021;-82
2022/01/27 00:24:56;;;;;;;23.15;12.48;;;;;;;-7.32;100.00;94052.34;2105786;28;20442;-82
2022/01/27 00:25:56;;;;;;;23.38;12.13;;;;;;;-7.49;100.00;94055.41;2098917;28;20534;-81
2022/01/27 00:26:58;;;;;;;23.88;12.25;;;;;;;-7.59;100.00;94045.16;2100750;28;20047;-82
2022/01/27 00:28:00;;;;;;;24.80;13.40;;;;;;;-7.56;100.00;94060.16;2106691;28;20111;-82
2022/01/27 00:29:01;;;;;;;24.90;12.50;;;;;;;-7.53;100.00;94048.47;2116370;27;20467;-82
2022/01/27 00:30:05;;;;;;;24.05;11.88;;;;;;;-7.52;100.00;94060.38;2122147;27;20444;-81
2022/01/27 00:31:06;;;;;;;20.65;12.45;;;;;;;-7.60;100.00;94057.34;2117803;27;20028;-80
2022/01/27 00:32:07;;;;;;;26.40;13.38;;;;;;;-7.56;100.00;94054.97;2108369;28;20468;-81
2022/01/27 00:33:08;;;;;;;26.13;12.43;;;;;;;-7.77;100.00;94051.06;2100230;28;20435;-81
2022/01/27 00:34:09;;;;;;;23.20;12.30;;;;;;;-7.78;100.00;94049.53;2101987;28;20438;-81
2022/01/27 00:35:11;;;;;;;21.10;11.80;;;;;;;-7.79;100.00;94051.34;2110057;28;20028;-81
2022/01/27 00:36:12;;;;;;;21.13;11.77;;;;;;;-7.80;100.00;94046.47;2113108;27;20126;-82
2022/01/27 00:37:14;;;;;;;21.88;11.43;;;;;;;-7.86;100.00;94046.53;2117701;27;20457;-82
2022/01/27 00:38:15;;;;;;;22.92;12.98;;;;;;;-7.70;100.00;94048.91;2119586;27;20852;-82
2022/01/27 00:39:16;;;;;;;23.40;11.65;;;;;;;-7.72;100.00;94045.84;2105881;28;20453;-81
2022/01/27 00:40:17;;;;;;;25.38;12.45;;;;;;;-7.79;100.00;94045.41;2109128;27;20476;-82
2022/01/27 00:41:19;;;;;;;24.35;12.38;;;;;;;-7.76;100.00;94044.84;2118530;27;20484;-82
2022/01/27 00:42:22;;;;;;;25.05;12.73;;;;;;;-7.76;100.00;94052.63;2109708;28;20454;-84
2022/01/27 00:43:23;;;;;;;22.88;12.25;;;;;;;-7.76;100.00;94050.03;2106725;27;20544;-81
2022/01/27 00:44:24;;;;;;;19.55;10.90;;;;;;;-7.75;100.00;94049.75;2110699;28;20449;-82
2022/01/27 00:45:28;;;;;;;21.40;11.57;;;;;;;-7.82;100.00;94053.72;2100950;28;20685;-82
2022/01/27 00:46:32;;;;;;;22.80;12.05;;;;;;;-7.76;100.00;94052.63;2090242;28;20025;-81
2022/01/27 00:47:33;;;;;;;23.55;12.50;;;;;;;-7.83;100.00;94052.19;2098496;28;20542;-81
2022/01/27 00:48:34;;;;;;;21.33;11.82;;;;;;;-7.95;100.00;94053.34;2118062;27;20451;-82
2022/01/27 00:49:38;;;;;;;23.63;11.10;;;;;;;-7.86;100.00;94049.13;2114317;28;20473;-83
2022/01/27 00:50:40;;;;;;;25.13;12.50;;;;;;;-7.87;100.00;94047.53;2108763;27;20031;-83
2022/01/27 00:51:45;;;;;;;24.52;12.25;;;;;;;-7.78;100.00;94049.53;2106074;28;20450;-82
2022/01/27 00:52:53;;;;;;;21.35;12.07;;;;;;;-7.78;100.00;94054.72;2106388;27;21184;-81
2022/01/27 00:54:08;;;;;;;19.58;10.52;;;;;;;-7.91;100.00;94049.16;2105387;27;20491;-82
2022/01/27 00:55:11;;;;;;;23.88;10.77;;;;;;;-7.85;100.00;94055.06;2100974;28;20443;-82
2022/01/27 00:57:37;;;;;;;25.25;11.90;;;;;;;-7.92;100.00;94047.59;2100125;27;20529;-82
2022/01/27 00:58:57;;;;;;;21.35;10.88;;;;;;;-7.91;100.00;94048.38;2120618;27;20075;-82
2022/01/27 01:00:01;;;;;;;22.35;10.52;;;;;;;-7.95;100.00;94047.38;2106033;28;20513;-82
2022/01/27 01:01:08;;;;;;;26.05;11.13;;;;;;;-7.98;100.00;94047.97;2098988;28;20094;-82
2022/01/27 01:02:33;;;;;;;22.17;10.82;;;;;;;-8.00;100.00;94047.44;2098578;28;20446;-82
2022/01/27 01:03:40;;;;;;;23.00;10.65;;;;;;;-8.05;100.00;94042.31;2110684;27;20460;-82
2022/01/27 01:04:45;;;;;;;18.40;10.25;;;;;;;-8.16;100.00;94046.84;2099875;28;20447;-83
2022/01/27 01:07:23;;;;;;;18.55;10.00;;;;;;;-7.88;100.00;94046.00;2083858;28;20538;-82
2022/01/27 01:14:44;;;;;;;23.02;10.10;;;;;;;-8.17;100.00;94043.47;2114375;28;20112;-82
2022/01/27 01:15:47;;;;;;;18.52;10.60;;;;;;;-8.19;100.00;94048.16;2114433;28;20027;-81
2022/01/27 01:18:09;;;;;;;23.48;10.30;;;;;;;-8.17;100.00;94051.25;2106806;28;20537;-81
2022/01/27 01:19:46;;;;;;;20.38;10.10;;;;;;;-8.04;100.00;94052.41;2119340;27;20455;-81
2022/01/27 01:31:54;;;;;;;21.33;9.73;;;;;;;-8.40;100.00;94068.34;2114166;28;20445;-82
2022/01/27 01:32:58;;;;;;;16.38;8.45;;;;;;;-8.40;100.00;94052.81;2107778;28;20562;-81
2022/01/27 01:34:23;;;;;;;25.27;10.45;;;;;;;-8.21;100.00;94052.88;2105800;28;20848;-82
2022/01/27 01:35:47;;;;;;;20.23;9.45;;;;;;;-8.20;100.00;94048.44;2102663;28;20518;-82
2022/01/27 01:36:56;;;;;;;20.42;9.27;;;;;;;-8.22;100.00;94042.75;2107600;28;20441;-81
2022/01/27 01:37:57;;;;;;;20.23;10.52;;;;;;;-8.23;100.00;94047.16;2104041;28;20454;-81
2022/01/27 01:38:58;;;;;;;19.48;10.23;;;;;;;-8.36;100.00;94045.22;2097441;28;20446;-82
2022/01/27 01:40:01;;;;;;;20.08;9.07;;;;;;;-8.33;100.00;94039.50;2097306;28;20449;-81
2022/01/27 01:41:03;;;;;;;20.35;10.35;;;;;;;-8.43;100.00;94044.78;2097887;28;20071;-82
2022/01/27 01:42:10;;;;;;;20.92;9.50;;;;;;;-8.50;100.00;94039.94;2097668;28;21246;-81
2022/01/27 01:43:11;;;;;;;22.20;10.32;;;;;;;-8.44;100.00;94035.47;2112957;27;20035;-82
2022/01/27 01:44:12;;;;;;;17.08;8.68;;;;;;;-8.40;100.00;94036.47;2119806;27;22096;-82
2022/01/27 01:45:17;;;;;;;19.35;9.30;;;;;;;-8.45;100.00;94031.34;2106035;28;20498;-81
2022/01/27 01:46:18;;;;;;;19.98;9.05;;;;;;;-8.48;100.00;94024.13;2098744;28;20935;-82
2022/01/27 01:47:20;;;;;;;21.40;9.38;;;;;;;-8.54;100.00;94031.16;2105579;28;20526;-81
2022/01/27 01:48:23;;;;;;;15.43;7.80;;;;;;;-8.50;100.00;94029.56;2114603;27;20119;-82
2022/01/27 01:49:26;;;;;;;17.70;7.90;;;;;;;-8.51;100.00;94024.69;2114317;28;20520;-81
2022/01/27 01:50:27;;;;;;;15.23;8.30;;;;;;;-8.49;100.00;94022.56;2106295;28;20430;-81
2022/01/27 01:51:30;;;;;;;19.77;8.30;;;;;;;-8.49;100.00;94022.56;2114308;28;20777;-81
2022/01/27 01:52:31;;;;;;;21.25;8.85;;;;;;;-8.49;100.00;94028.53;2114487;27;20821;-81
2022/01/27 01:53:32;;;;;;;17.35;8.68;;;;;;;-8.54;100.00;94014.84;2113714;27;20482;-81
2022/01/27 01:54:34;;;;;;;16.30;9.15;;;;;;;-8.53;100.00;94021.56;2114077;28;20498;-81
2022/01/27 01:55:35;;;;;;;20.00;9.15;;;;;;;-8.64;100.00;94015.72;2105943;28;20069;-81
2022/01/27 01:56:38;;;;;;;15.95;9.68;;;;;;;-8.57;100.00;94013.56;2105758;28;20445;-81
2022/01/27 01:57:40;;;;;;;18.70;9.48;;;;;;;-8.63;100.00;94012.09;2102771;28;20431;-81
2022/01/27 01:58:41;;;;;;;20.80;9.48;;;;;;;-8.58;100.00;94011.25;2097488;28;20485;-81
2022/01/27 01:59:42;;;;;;;18.85;10.40;;;;;;;-8.32;100.00;94011.75;2097202;28;20443;-81
2022/01/27 02:01:01;;;;;;;20.83;10.93;;;;;;;-8.44;100.00;94010.31;2089171;28;20060;-81
2022/01/27 02:02:02;;;;;;;23.70;10.82;;;;;;;-8.27;100.00;94019.47;2094353;28;20828;-81
2022/01/27 02:03:04;;;;;;;17.95;9.98;;;;;;;-8.47;100.00;94023.84;2105827;28;20663;-80
2022/01/27 02:04:08;;;;;;;18.90;10.93;;;;;;;-8.41;100.00;94020.16;2105564;28;20513;-81
2022/01/27 02:05:10;;;;;;;23.33;10.15;;;;;;;-8.52;100.00;94018.69;2095212;28;20490;-81
2022/01/27 02:06:19;;;;;;;18.48;10.55;;;;;;;-8.59;100.00;94020.09;2094335;28;20467;-81
2022/01/27 02:08:16;;;;;;;23.17;10.85;;;;;;;-8.59;100.00;94020.09;2107869;27;20454;-81
2022/01/27 02:09:09;;;;;;;20.10;9.98;;;;;;;-8.49;100.00;94025.16;2121039;27;20026;-81
2022/01/27 02:18:08;;;;;;;19.70;10.07;;;;;;;-8.57;100.00;94029.13;2113863;28;20080;-81
2022/01/27 02:19:10;;;;;;;18.55;10.00;;;;;;;-8.58;100.00;94029.41;2097430;28;20070;-81
2022/01/27 02:20:12;;;;;;;22.25;9.98;;;;;;;-8.58;100.00;94032.00;2111311;27;20464;-81
2022/01/27 02:21:14;;;;;;;19.80;10.18;;;;;;;-8.68;100.00;94035.44;2114203;28;20445;-81
2022/01/27 02:22:15;;;;;;;20.80;9.85;;;;;;;-8.71;100.00;94038.56;2113996;28;21004;-81
2022/01/27 02:23:17;;;;;;;18.45;10.18;;;;;;;-8.55;100.00;94036.63;2110831;28;20461;-80
2022/01/27 02:24:20;;;;;;;19.23;9.60;;;;;;;-8.61;100.00;94038.47;2109399;28;20483;-80
2022/01/27 02:25:22;;;;;;;18.52;10.05;;;;;;;-8.55;100.00;94036.63;2097841;28;20891;-81
2022/01/27 02:26:23;;;;;;;16.65;9.15;;;;;;;-8.62;100.00;94031.75;2109691;27;20449;-81
2022/01/27 02:27:24;;;;;;;14.75;9.55;;;;;;;-8.55;100.00;94037.41;2105355;28;20518;-81
2022/01/27 02:28:25;;;;;;;16.35;8.40;;;;;;;-8.56;100.00;94045.44;2105487;28;20081;-80
2022/01/27 02:29:27;;;;;;;16.23;8.90;;;;;;;-8.51;100.00;94033.22;2109615;28;20057;-82
2022/01/27 02:30:28;;;;;;;14.93;8.93;;;;;;;-8.50;100.00;94034.75;2122522;27;20023;-82
2022/01/27 02:31:29;;;;;;;15.25;8.93;;;;;;;-8.68;100.00;94033.63;2108596;28;20461;-80
2022/01/27 02:32:30;;;;;;;14.75;8.88;;;;;;;-8.74;100.00;94028.75;2097066;28;20485;-82
2022/01/27 02:33:32;;;;;;;16.00;8.82;;;;;;;-8.59;100.00;94025.28;2097285;28;20027;-82
2022/01/27 02:34:34;;;;;;;16.48;8.77;;;;;;;-8.58;100.00;94032.00;2100309;28;20480;-81
2022/01/27 02:35:35;;;;;;;16.77;8.30;;;;;;;-8.60;100.00;94028.88;2099381;28;20470;-82
2022/01/27 02:36:36;;;;;;;15.70;7.43;;;;;;;-8.64;100.00;94029.44;2096957;28;20876;-81
2022/01/27 02:37:37;;;;;;;14.25;8.02;;;;;;;-8.56;100.00;94024.69;2089109;28;20122;-81
2022/01/27 02:38:38;;;;;;;15.95;8.05;;;;;;;-8.64;100.00;94024.25;2109893;28;20453;-81
2022/01/27 02:39:40;;;;;;;14.05;8.05;;;;;;;-8.70;100.00;94019.38;2099479;28;21182;-81
2022/01/27 02:40:54;;;;;;;15.00;7.90;;;;;;;-8.75;100.00;94022.03;2089228;28;20508;-81
2022/01/27 02:42:31;;;;;;;17.27;7.00;;;;;;;-8.76;100.00;94017.91;2106170;28;20500;-82
2022/01/27 02:43:51;;;;;;;12.90;7.10;;;;;;;-8.71;100.00;94016.03;2113311;28;20433;-82
2022/01/27 02:45:13;;;;;;;;;;;;;;;-8.66;100.00;94018.56;2111329;28;20465;-82
2022/01/27 02:46:21;;;;;;;16.98;7.32;;;;;;;-8.75;100.00;94022.78;2108310;28;20613;-81
2022/01/27 02:47:24;;;;;;;16.45;7.60;;;;;;;-8.76;100.00;94013.50;2106441;28;21054;-81
2022/01/27 02:48:25;;;;;;;18.35;8.15;;;;;;;-8.74;100.00;94019.16;2112545;27;20521;-80
2022/01/27 02:49:26;;;;;;;18.55;7.80;;;;;;;-8.81;100.00;94017.94;2115058;28;20550;-81
2022/01/27 02:50:26;;;;;;;12.52;6.70;;;;;;;-8.76;100.00;94015.31;2122579;27;20076;-82
2022/01/27 02:51:27;;;;;;;13.82;7.57;;;;;;;-8.77;100.00;94014.53;2131397;27;20424;-81
2022/01/27 02:52:27;;;;;;;13.52;8.02;;;;;;;-8.70;100.00;94011.63;2123698;27;20027;-80
2022/01/27 02:53:27;;;;;;;13.55;7.03;;;;;;;-8.76;100.00;94010.91;2122659;28;20023;-80
2022/01/27 02:54:28;;;;;;;15.57;7.55;;;;;;;-8.75;100.00;94009.06;2122818;28;20026;-81
2022/01/27 02:55:28;;;;;;;19.02;8.68;;;;;;;-8.81;100.00;94010.94;2122470;28;20019;-81
2022/01/27 02:56:29;;;;;;;12.52;7.68;;;;;;;-8.84;100.00;94014.06;2125643;27;20022;-81
2022/01/27 02:57:30;;;;;;;19.42;8.13;;;;;;;-8.85;100.00;94009.94;2118354;28;20040;-82
2022/01/27 02:58:30;;;;;;;13.63;7.43;;;;;;;-8.84;100.00;94013.31;2105482;28;20430;-80
2022/01/27 02:59:31;;;;;;;15.80;8.55;;;;;;;-8.82;100.00;94006.81;2105592;28;20031;-81
2022/01/27 03:00:33;;;;;;;16.02;8.55;;;;;;;-8.91;100.00;94004.03;2105730;28;20028;-83
2022/01/27 03:01:33;;;;;;;16.70;8.38;;;;;;;-8.95;100.00;94003.03;2114305;28;20364;-82
2022/01/27 03:02:35;;;;;;;15.43;8.43;;;;;;;-8.98;100.00;93998.38;2114206;28;20508;-82
2022/01/27 03:03:36;;;;;;;17.42;9.05;;;;;;;-8.90;100.00;94004.81;2114266;28;20020;-82
2022/01/27 03:04:36;;;;;;;16.67;8.90;;;;;;;-8.90;100.00;93995.22;2114137;28;20440;-81
2022/01/27 03:05:37;;;;;;;21.60;8.82;;;;;;;-8.89;100.00;94003.75;2115913;28;20427;-82
2022/01/27 03:06:38;;;;;;;15.05;8.60;;;;;;;-8.88;100.00;94003.47;2116387;28;20695;-81
2022/01/27 03:07:38;;;;;;;14.02;8.32;;;;;;;-8.92;100.00;94004.28;2115915;28;20034;-82
2022/01/27 03:08:39;;;;;;;20.70;9.40;;;;;;;-8.79;100.00;94000.31;2115760;28;20015;-81
2022/01/27 03:09:40;;;;;;;16.88;8.30;;;;;;;-8.76;100.00;94000.53;2107223;28;20031;-82
2022/01/27 03:10:52;;;;;;;16.58;8.57;;;;;;;-8.77;100.00;94000.81;2118244;27;20483;-81
2022/01/27 03:12:02;;;;;;;17.40;8.75;;;;;;;-8.77;100.00;93999.00;2121588;27;20472;-81
2022/01/27 03:13:02;;;;;;;13.48;8.38;;;;;;;-8.75;100.00;93993.53;2116354;28;20459;-81
2022/01/27 03:14:04;;;;;;;16.83;9.75;;;;;;;-8.81;100.00;93997.22;2115682;28;20447;-81
2022/01/27 03:15:05;;;;;;;15.98;8.82;;;;;;;-8.92;100.00;93996.53;2107336;28;20122;-81
2022/01/27 03:16:08;;;;;;;18.17;9.30;;;;;;;-8.87;100.00;93999.06;2107175;28;20426;-81
2022/01/27 03:17:09;;;;;;;15.90;8.52;;;;;;;-8.84;100.00;94001.13;2107463;28;20467;-82
2022/01/27 03:18:10;;;;;;;14.60;9.10;;;;;;;-8.71;100.00;94003.06;2107164;28;20450;-81
2022/01/27 03:19:11;;;;;;;16.73;9.20;;;;;;;-8.79;100.00;94008.06;2115356;28;20487;-81
2022/01/27 03:20:11;;;;;;;17.88;8.63;;;;;;;-8.87;100.00;93996.47;2115475;28;20027;-81
2022/01/27 03:21:14;;;;;;;20.08;9.15;;;;;;;-8.83;100.00;93999.31;2115635;28;20541;-81
2022/01/27 03:22:14;;;;;;;14.93;8.40;;;;;;;-8.76;100.00;93997.19;2115521;28;20346;-81
2022/01/27 03:23:15;;;;;;;19.67;9.07;;;;;;;-8.83;100.00;94005.25;2115503;28;20433;-81
2022/01/27 03:24:17;;;;;;;22.38;9.20;;;;;;;-8.89;100.00;94001.16;2115588;28;20027;-81
2022/01/27 03:25:18;;;;;;;17.10;8.48;;;;;;;-8.92;100.00;93999.13;2107250;28;20028;-81
2022/01/27 03:26:19;;;;;;;15.48;8.07;;;;;;;-8.89;100.00;93996.00;2115404;28;20436;-81
2022/01/27 03:27:23;;;;;;;16.17;9.43;;;;;;;-8.92;100.00;93997.28;2126523;27;20042;-81
2022/01/27 03:28:27;;;;;;;14.55;7.75;;;;;;;-8.95;100.00;93987.50;2118894;27;20023;-81
2022/01/27 03:29:28;;;;;;;13.70;8.77;;;;;;;-8.96;100.00;93995.53;2124252;27;20432;-82
2022/01/27 03:30:28;;;;;;;13.27;8.20;;;;;;;-8.91;100.00;93996.28;2115741;27;20446;-82
2022/01/27 03:31:29;;;;;;;13.55;7.40;;;;;;;-8.93;100.00;93997.56;2112199;27;20462;-82
2022/01/27 03:32:30;;;;;;;13.75;7.40;;;;;;;-8.90;100.00;93994.44;2127746;27;20019;-82
2022/01/27 03:33:30;;;;;;;19.67;8.50;;;;;;;-8.94;100.00;93999.41;2124557;27;20039;-82
2022/01/27 03:34:30;;;;;;;16.15;7.15;;;;;;;-8.94;100.00;93989.03;2118570;27;20019;-81
2022/01/27 03:35:31;;;;;;;17.65;8.30;;;;;;;-8.87;100.00;93996.47;2123047;27;20019;-82
2022/01/27 03:36:31;;;;;;;15.05;8.13;;;;;;;-8.95;100.00;93995.25;2123653;27;20027;-82
2022/01/27 03:37:32;;;;;;;12.55;7.55;;;;;;;-9.08;100.00;93995.91;2123897;27;20019;-82
2022/01/27 03:38:32;;;;;;;11.07;7.72;;;;;;;-8.98;100.00;93998.38;2115355;28;20458;-81
2022/01/27 03:39:36;;;;;;;15.68;7.90;;;;;;;-9.00;100.00;93992.72;2115600;28;20023;-82
2022/01/27 03:40:37;;;;;;;16.88;8.80;;;;;;;-8.94;100.00;94002.00;2115772;27;20085;-82
2022/01/27 03:41:39;;;;;;;18.25;8.40;;;;;;;-8.91;100.00;93998.88;2115433;28;20949;-83
2022/01/27 03:42:49;;;;;;;15.27;7.97;;;;;;;-8.96;100.00;94003.28;2124054;27;20030;-82
2022/01/27 03:43:50;;;;;;;;;;;;;;;-8.84;100.00;94000.34;2117324;27;20430;-82
2022/01/27 03:44:51;;;;;;;14.38;7.93;;;;;;;-8.98;100.00;94005.38;2130758;27;19911;-83
2022/01/27 03:45:51;;;;;;;14.68;8.30;;;;;;;-9.08;100.00;93997.72;2128964;27;20468;-83
2022/01/27 03:46:54;;;;;;;16.33;8.48;;;;;;;-9.00;100.00;93997.09;2123795;27;20059;-82
2022/01/27 03:47:54;;;;;;;18.52;8.60;;;;;;;-8.95;100.00;94005.63;2124199;27;20031;-83
2022/01/27 03:48:55;;;;;;;16.35;8.55;;;;;;;-8.99;100.00;94001.25;2123853;27;20452;-83
2022/01/27 03:49:56;;;;;;;17.45;8.45;;;;;;;-9.06;100.00;93998.19;2115173;28;20445;-81
2022/01/27 03:50:56;;;;;;;20.38;8.70;;;;;;;-9.08;100.00;93997.72;2116848;27;20023;-81
2022/01/27 03:52:00;;;;;;;15.88;8.50;;;;;;;-9.11;100.00;93995.66;2123757;27;20680;-81
2022/01/27 03:53:01;;;;;;;17.40;8.70;;;;;;;-9.19;100.00;93995.19;2124268;27;20027;-82
2022/01/27 03:54:01;;;;;;;16.63;8.43;;;;;;;-9.15;100.00;93993.59;2132473;27;20428;-82
2022/01/27 03:55:01;;;;;;;16.98;8.45;;;;;;;-9.05;100.00;93986.78;2132325;27;20029;-83
2022/01/27 03:56:02;;;;;;;16.85;8.02;;;;;;;-9.15;100.00;93998.00;2132514;27;20029;-82
2022/01/27 03:57:03;;;;;;;14.40;8.30;;;;;;;-8.92;100.00;93999.88;2132185;27;20121;-81
2022/01/27 03:58:03;;;;;;;16.05;8.55;;;;;;;-8.89;100.00;94011.53;2115456;28;20460;-81
2022/01/27 03:59:04;;;;;;;18.40;8.63;;;;;;;-8.92;100.00;93999.13;2115354;28;20019;-82
2022/01/27 04:00:06;;;;;;;15.07;8.02;;;;;;;-8.89;100.00;93996.75;2130785;27;20094;-81
2022/01/27 04:01:07;;;;;;;14.73;8.75;;;;;;;-8.92;100.00;93999.13;2132418;27;20375;-81
2022/01/27 04:02:07;;;;;;;18.05;7.95;;;;;;;-9.01;100.00;94000.75;2121953;27;20432;-82
2022/01/27 04:03:11;;;;;;;15.60;7.13;;;;;;;-8.77;100.00;94000.81;2132219;27;20462;-81
2022/01/27 04:04:13;;;;;;;13.25;6.68;;;;;;;-8.94;100.00;93994.22;2132151;27;20026;-82
2022/01/27 04:05:21;;;;;;;14.07;8.57;;;;;;;-9.01;100.00;93990.38;2123924;27;20447;-82
2022/01/27 04:06:31;;;;;;;10.73;6.72;;;;;;;-8.93;100.00;94000.94;2124596;27;20834;-82
2022/01/27 04:07:31;;;;;;;12.10;6.55;;;;;;;-8.93;100.00;94000.94;2125073;27;20428;-82
2022/01/27 04:08:34;;;;;;;12.23;6.40;;;;;;;-8.90;100.00;94002.22;2123744;27;20034;-81
2022/01/27 04:09:34;;;;;;;12.55;7.07;;;;;;;-8.97;100.00;94002.53;2116470;27;20027;-81
2022/01/27 04:10:36;;;;;;;13.05;7.07;;;;;;;-8.93;100.00;94000.16;2106489;28;20491;-82
2022/01/27 04:11:39;;;;;;;14.88;7.15;;;;;;;-8.90;100.00;94004.81;2115224;28;20027;-82
2022/01/27 04:12:40;;;;;;;14.75;6.95;;;;;;;-8.95;100.00;94002.28;2115108;28;20458;-82
2022/01/27 04:13:40;;;;;;;14.38;7.43;;;;;;;-8.90;100.00;94003.00;2115365;28;20433;-82
2022/01/27 04:14:40;;;;;;;12.25;6.50;;;;;;;-8.81;100.00;94000.59;2123630;27;20172;-82
2022/01/27 04:15:42;;;;;;;14.50;6.97;;;;;;;-8.79;100.00;94000.31;2115087;28;20031;-82
2022/01/27 04:16:43;;;;;;;10.20;5.72;;;;;;;-8.81;100.00;94007.59;2106153;28;20020;-83
2022/01/27 04:17:43;;;;;;;13.60;6.60;;;;;;;-8.92;100.00;94004.28;2106660;28;20912;-81
2022/01/27 04:18:45;;;;;;;14.93;6.28;;;;;;;-9.01;100.00;94001.50;2115358;28;20032;-82
2022/01/27 04:19:46;;;;;;;13.15;6.53;;;;;;;-8.96;100.00;94006.66;2123512;27;20050;-82
2022/01/27 04:20:46;;;;;;;11.75;6.05;;;;;;;-8.90;100.00;94012.59;2123782;27;20449;-82
2022/01/27 04:21:47;;;;;;;10.07;5.45;;;;;;;-9.00;100.00;94003.09;2115075;28;20094;-82
2022/01/27 04:22:47;;;;;;;11.32;6.13;;;;;;;-8.83;100.00;94005.25;2115047;28;20028;-82
2022/01/27 04:23:49;;;;;;;8.88;5.80;;;;;;;-8.80;100.00;94009.91;2123534;27;20018;-81
2022/01/27 04:24:50;;;;;;;11.85;6.15;;;;;;;-8.85;100.00;94004.00;2107038;27;20102;-82
2022/01/27 04:25:51;;;;;;;9.82;5.50;;;;;;;-8.96;100.00;94011.06;2106608;28;20470;-82
2022/01/27 04:26:59;;;;;;;8.82;5.90;;;;;;;-8.93;100.00;94008.69;2106669;28;20108;-81
2022/01/27 04:28:05;;;;;;;11.32;5.70;;;;;;;-8.95;100.00;94010.03;2115847;27;20661;-81
2022/01/27 04:29:06;;;;;;;9.70;5.43;;;;;;;-8.92;100.00;94018.00;2126452;27;20425;-80
2022/01/27 04:30:13;;;;;;;11.63;6.32;;;;;;;-8.96;100.00;94005.88;2131975;27;20488;-82
2022/01/27 04:31:13;;;;;;;10.30;5.78;;;;;;;-8.93;100.00;94002.75;2124358;27;20115;-82
2022/01/27 04:32:20;;;;;;;13.38;6.00;;;;;;;-8.91;100.00;94004.03;2123263;27;20948;-82
2022/01/27 04:33:25;;;;;;;10.02;5.38;;;;;;;-8.91;100.00;94009.22;2132293;27;20355;-82
2022/01/27 04:34:25;;;;;;;13.45;6.40;;;;;;;-8.92;100.00;93999.13;2132052;27;20986;-81
2022/01/27 04:35:29;;;;;;;12.13;7.05;;;;;;;-8.98;100.00;94002.81;2132291;27;20431;-81
2022/01/27 04:36:32;;;;;;;11.07;5.85;;;;;;;-8.95;100.00;94002.28;2131995;27;20026;-81
2022/01/27 04:37:38;;;;;;;11.60;6.38;;;;;;;-8.91;100.00;94005.84;2132008;27;20428;-81
2022/01/27 04:38:49;;;;;;;12.15;6.15;;;;;;;-8.97;100.00;93994.75;2124163;27;20437;-81
2022/01/27 04:40:02;;;;;;;15.50;5.78;;;;;;;-9.00;100.00;93992.72;2124758;27;20924;-80
2022/01/27 04:41:14;;;;;;;12.38;6.38;;;;;;;-9.00;100.00;93984.97;2125180;27;20951;-81
2022/01/27 04:42:25;;;;;;;14.15;6.30;;;;;;;-9.09;100.00;93993.56;2123909;27;20437;-82
2022/01/27 04:43:52;;;;;;;10.13;5.97;;;;;;;-9.05;100.00;94000.50;2107837;28;20495;-80
2022/01/27 04:44:55;;;;;;;14.52;6.25;;;;;;;-9.10;100.00;93987.59;2114901;27;20465;-82
2022/01/27 04:46:13;;;;;;;13.57;6.72;;;;;;;-9.06;100.00;93993.78;2131876;27;20970;-81
2022/01/27 04:47:21;;;;;;;12.02;6.78;;;;;;;-9.14;100.00;94002.91;2125744;27;20452;-81
2022/01/27 04:48:23;;;;;;;14.50;6.68;;;;;;;-9.04;100.00;93993.50;2131187;27;20507;-81
2022/01/27 04:49:24;;;;;;;11.20;5.93;;;;;;;-9.19;100.00;93989.22;2123473;27;20433;-82
2022/01/27 04:50:26;;;;;;;15.32;7.15;;;;;;;-9.16;100.00;93989.47;2123371;27;20437;-82
2022/01/27 04:51:28;;;;;;;12.10;5.95;;;;;;;-9.21;100.00;93991.34;2115226;28;20023;-81
2022/01/27 04:52:31;;;;;;;14.65;6.75;;;;;;;-9.04;100.00;93991.72;2123281;27;20437;-82
2022/01/27 04:53:41;;;;;;;10.60;6.15;;;;;;;-9.11;100.00;93993.84;2115198;28;20437;-81
2022/01/27 04:54:58;;;;;;;12.65;6.93;;;;;;;-9.13;100.00;93999.28;2115977;27;20445;-82
2022/01/27 04:56:00;;;;;;;10.32;5.57;;;;;;;-9.09;100.00;93991.72;2129579;27;20464;-82
2022/01/27 04:57:01;;;;;;;13.00;6.65;;;;;;;-9.08;100.00;93995.13;2131846;27;20435;-82
2022/01/27 04:58:13;;;;;;;14.15;6.85;;;;;;;-9.11;100.00;93993.06;2106412;28;20509;-82
2022/01/27 04:59:24;;;;;;;12.32;6.00;;;;;;;-9.20;100.00;93991.06;2122142;27;20444;-81
2022/01/27 05:00:25;;;;;;;10.18;5.45;;;;;;;-9.17;100.00;93997.53;2107569;27;20483;-81
2022/01/27 05:01:33;;;;;;;11.45;5.80;;;;;;;-9.16;100.00;93991.28;2131946;27;20497;-82
2022/01/27 05:02:42;;;;;;;13.30;6.43;;;;;;;-8.97;100.00;93986.22;2129341;27;20058;-82
2022/01/27 05:03:50;;;;;;;11.13;6.30;;;;;;;-9.02;100.00;93988.84;2115760;27;20778;-81
2022/01/27 05:04:51;;;;;;;10.77;5.55;;;;;;;-9.04;100.00;93980.56;2107161;28;20650;-81
2022/01/27 05:05:53;;;;;;;11.90;6.68;;;;;;;-9.13;100.00;93985.56;2114715;28;20429;-81
2022/01/27 05:07:00;;;;;;;12.32;5.93;;;;;;;-9.09;100.00;93975.44;2115461;28;20023;-81
2022/01/27 05:08:02;;;;;;;12.25;5.57;;;;;;;-9.01;100.00;93978.22;2115516;28;20520;-81
2022/01/27 05:09:03;;;;;;;9.77;6.30;;;;;;;-8.99;100.00;93973.53;2114611;28;20973;-81
2022/01/27 05:10:11;;;;;;;9.68;5.65;;;;;;;-9.03;100.00;93974.38;2106368;28;20441;-81
2022/01/27 05:12:20;;;;;;;23.58;12.68;;;;;;;-9.23;100.00;93978.66;2123096;27;20444;-81
2022/01/27 05:13:22;;;;;;;29.92;15.57;;;;;;;-9.22;100.00;93971.66;2123617;27;20567;-81
2022/01/27 05:14:24;;;;;;;26.30;15.65;;;;;;;-9.25;100.00;93977.38;2123838;27;20876;-81
2022/01/27 05:15:25;;;;;;;27.05;14.27;;;;;;;-9.16;100.00;93979.13;2123272;27;20436;-80
2022/01/27 05:16:27;;;;;;;31.27;15.55;;;;;;;-9.25;100.00;93978.16;2121963;27;20468;-82
2022/01/27 05:17:27;;;;;;;41.80;19.20;;;;;;;-9.16;100.00;93976.53;2123109;27;20029;-82
2022/01/27 05:18:28;;;;;;;54.13;26.50;;;;;;;-9.13;100.00;93972.59;2123212;27;20492;-82
2022/01/27 05:19:28;;;;;;;55.85;23.95;;;;;;;-9.13;100.00;93977.78;2123764;27;20456;-81
2022/01/27 05:20:28;;;;;;;40.58;20.08;;;;;;;-9.05;100.00;93984.19;2123153;27;20061;-81
2022/01/27 05:21:29;;;;;;;54.65;23.80;;;;;;;-9.14;100.00;93978.84;2120154;27;20034;-80
2022/01/27 05:22:31;;;;;;;65.05;26.75;;;;;;;-9.20;100.00;93969.56;2131842;27;20014;-81
2022/01/27 05:23:31;;;;;;;68.18;27.48;;;;;;;-9.15;100.00;93983.25;2131632;27;20015;-80
2022/01/27 05:24:32;;;;;;;76.72;31.10;;;;;;;-9.11;100.00;93974.94;2122903;27;20499;-80
2022/01/27 05:25:32;;;;;;;71.90;29.17;;;;;;;-9.08;100.00;93979.59;2129344;27;20022;-82